createdAt,value
2019-02-11T00:01:39.591Z,6.18
2019-02-11T00:04:08.842Z,6.14
2019-02-11T00:06:38.109Z,6.16
2019-02-11T00:09:09.481Z,6.13
2019-02-11T00:11:38.809Z,6.14
2019-02-11T00:14:07.997Z,6.07
2019-02-11T00:16:37.224Z,6.16
2019-02-11T00:19:06.322Z,6.12
2019-02-11T00:21:35.384Z,6.05
2019-02-11T00:24:04.559Z,6.05
2019-02-11T00:26:33.897Z,6.01
2019-02-11T00:29:03.132Z,5.96
2019-02-11T00:31:32.271Z,6.00
2019-02-11T00:34:01.610Z,5.94
2019-02-11T00:36:30.926Z,5.99
2019-02-11T00:39:00.224Z,5.98
2019-02-11T00:41:29.348Z,5.98
2019-02-11T00:43:58.392Z,5.95
2019-02-11T00:46:27.608Z,5.94
2019-02-11T00:48:58.906Z,5.89
2019-02-11T00:51:28.000Z,5.89
2019-02-11T00:53:57.238Z,5.92
2019-02-11T00:56:26.426Z,5.95
2019-02-11T00:58:55.484Z,5.88
2019-02-11T01:01:24.856Z,5.89
2019-02-11T01:03:54.109Z,5.88
2019-02-11T01:06:23.402Z,5.83
2019-02-11T01:08:52.568Z,5.88
2019-02-11T01:11:21.827Z,5.82
2019-02-11T01:13:51.648Z,5.76
2019-02-11T01:16:21.108Z,5.73
2019-02-11T01:18:50.837Z,5.77
2019-02-11T01:21:19.930Z,5.78
2019-02-11T01:23:49.026Z,5.79
2019-02-11T01:26:18.100Z,5.80
2019-02-11T01:28:47.385Z,5.87
2019-02-11T01:31:16.620Z,5.81
2019-02-11T01:33:45.806Z,5.87
2019-02-11T01:36:14.904Z,5.78
2019-02-11T01:38:44.171Z,5.76
2019-02-11T01:41:13.391Z,5.76
2019-02-11T01:43:42.641Z,5.78
2019-02-11T01:46:11.713Z,5.77
2019-02-11T01:48:40.987Z,5.82
2019-02-11T01:51:10.403Z,5.81
2019-02-11T01:53:39.525Z,5.82
2019-02-11T01:56:08.804Z,5.86
2019-02-11T01:58:38.100Z,5.87
2019-02-11T02:01:07.501Z,5.86
2019-02-11T02:03:36.629Z,5.78
2019-02-11T02:06:05.731Z,5.80
2019-02-11T02:08:34.802Z,5.75
2019-02-11T02:11:04.207Z,5.73
2019-02-11T02:13:33.315Z,5.65
2019-02-11T02:16:02.494Z,5.52
2019-02-11T02:18:31.666Z,5.49
2019-02-11T02:21:00.804Z,5.41
2019-02-11T02:23:30.226Z,5.34
2019-02-11T02:26:01.362Z,5.36
2019-02-11T02:28:30.631Z,5.32
2019-02-11T02:30:59.724Z,5.26
2019-02-11T02:33:28.911Z,5.24
2019-02-11T02:35:58.275Z,5.22
2019-02-11T02:38:27.408Z,5.22
2019-02-11T02:40:56.655Z,5.17
2019-02-11T02:43:25.744Z,5.18
2019-02-11T02:45:55.352Z,5.23
2019-02-11T02:48:24.439Z,5.24
2019-02-11T02:50:53.523Z,5.26
2019-02-11T02:53:22.712Z,5.29
2019-02-11T02:55:51.889Z,5.24
2019-02-11T02:58:21.187Z,5.27
2019-02-11T03:00:50.659Z,5.28
2019-02-11T03:03:19.777Z,5.26
2019-02-11T03:05:48.931Z,5.15
2019-02-11T03:08:18.089Z,5.25
2019-02-11T03:10:47.221Z,5.26
2019-02-11T03:13:16.622Z,5.21
2019-02-11T03:15:45.709Z,5.24
2019-02-11T03:18:15.059Z,5.30
2019-02-11T03:20:44.336Z,5.28
2019-02-11T03:23:13.514Z,5.22
2019-02-11T03:25:42.678Z,5.23
2019-02-11T03:28:11.831Z,5.23
2019-02-11T03:30:41.001Z,5.26
2019-02-11T03:33:10.436Z,5.13
2019-02-11T03:35:39.520Z,5.08
2019-02-11T03:38:08.707Z,5.07
2019-02-11T03:40:38.246Z,5.12
2019-02-11T03:43:07.453Z,5.08
2019-02-11T03:45:36.604Z,5.09
2019-02-11T03:48:05.712Z,5.19
2019-02-11T03:50:34.939Z,5.20
2019-02-11T03:53:04.000Z,5.11
2019-02-11T03:55:33.281Z,5.16
2019-02-11T03:58:02.521Z,5.15
2019-02-11T04:00:31.828Z,5.10
2019-02-11T04:03:01.105Z,5.15
2019-02-11T04:05:30.154Z,5.15
2019-02-11T04:07:59.359Z,5.22
2019-02-11T04:10:28.627Z,5.19
2019-02-11T04:12:58.023Z,5.21
2019-02-11T04:15:27.108Z,5.18
2019-02-11T04:17:56.210Z,5.27
2019-02-11T04:20:25.524Z,5.29
2019-02-11T04:22:54.835Z,5.31
2019-02-11T04:25:23.903Z,5.26
2019-02-11T04:27:53.131Z,5.25
2019-02-11T04:30:22.477Z,5.20
2019-02-11T04:32:51.557Z,5.31
2019-02-11T04:35:21.160Z,5.23
2019-02-11T04:37:50.210Z,5.23
2019-02-11T04:40:19.423Z,5.18
2019-02-11T04:42:48.509Z,5.31
2019-02-11T04:45:17.778Z,5.36
2019-02-11T04:47:47.001Z,5.30
2019-02-11T04:50:16.144Z,5.22
2019-02-11T04:52:45.359Z,5.27
2019-02-11T04:55:15.122Z,5.30
2019-02-11T04:57:44.218Z,5.28
2019-02-11T05:00:13.445Z,5.30
2019-02-11T05:02:42.514Z,5.25
2019-02-11T05:05:11.697Z,5.24
2019-02-11T05:07:40.761Z,5.22
2019-02-11T05:10:12.052Z,5.21
2019-02-11T05:12:41.322Z,5.24
2019-02-11T05:15:11.352Z,5.27
2019-02-11T05:17:40.465Z,5.30
2019-02-11T05:20:09.904Z,5.29
2019-02-11T05:22:39.001Z,5.30
2019-02-11T05:25:08.674Z,5.29
2019-02-11T05:27:37.778Z,5.33
2019-02-11T05:30:07.030Z,5.29
2019-02-11T05:32:36.256Z,5.34
2019-02-11T05:35:06.281Z,5.28
2019-02-11T05:37:35.608Z,5.29
2019-02-11T05:40:05.589Z,5.33
2019-02-11T05:42:34.876Z,5.29
2019-02-11T05:45:03.983Z,5.33
2019-02-11T05:47:33.186Z,5.32
2019-02-11T05:50:02.301Z,5.37
2019-02-11T05:52:31.458Z,5.39
2019-02-11T05:55:00.862Z,5.36
2019-02-11T05:57:30.180Z,5.41
2019-02-11T05:59:59.417Z,5.41
2019-02-11T06:02:28.604Z,5.35
2019-02-11T06:05:00.653Z,5.30
2019-02-11T06:07:30.134Z,5.32
2019-02-11T06:09:59.183Z,5.40
2019-02-11T06:12:28.287Z,5.36
2019-02-11T06:15:03.949Z,5.26
2019-02-11T06:17:28.629Z,5.29
2019-02-11T06:19:57.841Z,5.35
2019-02-11T06:22:27.095Z,5.37
2019-02-11T06:24:56.381Z,5.37
2019-02-11T06:27:26.531Z,5.37
2019-02-11T06:29:55.807Z,5.35
2019-02-11T06:32:25.064Z,5.40
2019-02-11T06:34:54.876Z,5.37
2019-02-11T06:37:23.934Z,5.34
2019-02-11T06:39:53.044Z,5.33
2019-02-11T06:42:22.107Z,5.33
2019-02-11T06:44:51.180Z,5.29
2019-02-11T06:47:20.384Z,5.29
2019-02-11T06:49:50.451Z,5.23
2019-02-11T06:52:19.816Z,5.26
2019-02-11T06:54:49.188Z,5.28
2019-02-11T06:57:18.656Z,5.28
2019-02-11T06:59:47.772Z,5.14
2019-02-11T07:02:17.219Z,5.15
2019-02-11T07:04:46.308Z,5.15
2019-02-11T07:07:15.387Z,5.20
2019-02-11T07:09:45.249Z,5.17
2019-02-11T07:12:14.524Z,5.19
2019-02-11T07:14:43.831Z,5.17
2019-02-11T07:17:12.916Z,5.16
2019-02-11T07:19:42.157Z,5.13
2019-02-11T07:22:11.527Z,5.10
2019-02-11T07:24:40.696Z,5.16
2019-02-11T07:27:09.949Z,5.17
2019-02-11T07:29:39.084Z,5.19
2019-02-11T07:32:08.320Z,5.18
2019-02-11T07:34:37.521Z,5.22
2019-02-11T07:37:06.941Z,5.19
2019-02-11T07:39:36.106Z,5.19
2019-02-11T07:42:17.918Z,5.22
2019-02-11T07:44:53.784Z,5.23
2019-02-11T07:47:23.002Z,5.26
2019-02-11T07:49:52.274Z,5.23
2019-02-11T07:52:26.733Z,5.21
2019-02-11T07:54:52.797Z,5.24
2019-02-11T07:57:22.095Z,5.26
2019-02-11T07:59:51.371Z,5.26
2019-02-11T08:02:20.494Z,5.34
2019-02-11T08:04:49.591Z,5.29
2019-02-11T08:07:18.831Z,5.23
2019-02-11T08:09:48.241Z,5.28
2019-02-11T08:12:17.324Z,5.26
2019-02-11T08:14:46.644Z,5.30
2019-02-11T08:17:15.821Z,5.34
2019-02-11T08:19:45.069Z,5.30
2019-02-11T08:22:14.224Z,5.32
2019-02-11T08:24:43.402Z,5.36
2019-02-11T08:27:12.639Z,5.40
2019-02-11T08:29:42.043Z,5.39
2019-02-11T08:32:11.284Z,5.38
2019-02-11T08:34:40.393Z,5.49
2019-02-11T08:37:09.542Z,5.53
2019-02-11T08:39:40.574Z,5.50
2019-02-11T08:42:10.108Z,5.57
2019-02-11T08:44:39.264Z,5.66
2019-02-11T08:47:08.354Z,5.70
2019-02-11T08:49:37.661Z,5.69
2019-02-11T08:52:06.779Z,5.65
2019-02-11T08:54:36.029Z,5.70
2019-02-11T08:57:05.246Z,5.76
2019-02-11T08:59:34.383Z,5.73
2019-02-11T09:02:03.731Z,5.80
2019-02-11T09:04:32.973Z,5.85
2019-02-11T09:07:02.082Z,5.92
2019-02-11T09:09:31.371Z,6.10
2019-02-11T09:12:00.703Z,6.37
2019-02-11T09:14:31.018Z,6.51
2019-02-11T09:17:00.819Z,6.64
2019-02-11T09:19:30.310Z,6.72
2019-02-11T09:22:07.246Z,6.61
2019-02-11T09:24:30.486Z,6.58
2019-02-11T09:26:59.793Z,6.62
2019-02-11T09:29:29.063Z,6.50
2019-02-11T09:31:58.347Z,6.46
2019-02-11T09:34:27.449Z,6.49
2019-02-11T09:36:56.724Z,6.55
2019-02-11T09:39:25.926Z,6.58
2019-02-11T09:41:55.127Z,6.58
2019-02-11T09:44:29.704Z,6.64
2019-02-11T09:46:56.532Z,6.70
2019-02-11T09:49:25.932Z,6.84
2019-02-11T09:51:55.026Z,7.14
2019-02-11T09:54:24.139Z,7.36
2019-02-11T09:56:53.349Z,7.54
2019-02-11T09:59:22.576Z,7.57
2019-02-11T10:01:51.832Z,7.54
2019-02-11T10:04:21.020Z,7.70
2019-02-11T10:06:50.404Z,7.71
2019-02-11T10:09:19.840Z,7.66
2019-02-11T10:11:49.438Z,7.72
2019-02-11T10:14:18.936Z,7.68
2019-02-11T10:16:48.241Z,7.59
2019-02-11T10:19:17.277Z,7.51
2019-02-11T10:21:46.727Z,7.54
2019-02-11T10:24:15.845Z,7.65
2019-02-11T10:26:45.061Z,7.82
2019-02-11T10:29:14.334Z,8.02
2019-02-11T10:31:43.501Z,8.06
2019-02-11T10:34:12.795Z,7.93
2019-02-11T10:36:42.355Z,8.04
2019-02-11T10:39:11.450Z,7.92
2019-02-11T10:41:40.575Z,7.97
2019-02-11T10:44:09.779Z,8.08
2019-02-11T10:46:38.894Z,8.28
2019-02-11T10:49:08.211Z,8.16
2019-02-11T10:51:37.270Z,8.16
2019-02-11T10:54:06.560Z,8.14
2019-02-11T10:56:35.774Z,7.90
2019-02-11T10:59:04.857Z,7.73
2019-02-11T11:01:34.185Z,7.56
2019-02-11T11:04:03.504Z,7.49
2019-02-11T11:06:32.695Z,7.55
2019-02-11T11:09:01.909Z,7.59
2019-02-11T11:11:31.088Z,7.70
2019-02-11T11:14:00.208Z,7.67
2019-02-11T11:16:30.006Z,7.63
2019-02-11T11:18:59.231Z,7.76
2019-02-11T11:21:28.337Z,7.75
2019-02-11T11:23:57.473Z,7.71
2019-02-11T11:26:26.706Z,7.60
2019-02-11T11:28:55.798Z,7.47
2019-02-11T11:31:26.638Z,7.39
2019-02-11T11:33:56.014Z,7.34
2019-02-11T11:36:25.106Z,7.27
2019-02-11T11:38:54.393Z,7.33
2019-02-11T11:41:24.657Z,7.30
2019-02-11T11:43:53.899Z,7.34
2019-02-11T11:46:23.161Z,7.30
2019-02-11T11:48:52.507Z,7.31
2019-02-11T11:51:21.695Z,7.25
2019-02-11T11:53:50.773Z,7.25
2019-02-11T11:56:20.305Z,7.45
2019-02-11T11:58:49.544Z,7.43
2019-02-11T12:01:19.667Z,7.49
2019-02-11T12:03:49.549Z,7.52
2019-02-11T12:06:19.164Z,7.50
2019-02-11T12:08:48.223Z,7.50
2019-02-11T12:11:18.265Z,7.40
2019-02-11T12:13:47.337Z,7.52
2019-02-11T12:16:16.649Z,7.64
2019-02-11T12:18:45.770Z,7.64
2019-02-11T12:21:15.086Z,7.70
2019-02-11T12:23:44.182Z,7.72
2019-02-11T12:26:13.648Z,7.78
2019-02-11T12:28:42.777Z,7.82
2019-02-11T12:31:11.947Z,8.08
2019-02-11T12:33:41.448Z,8.32
2019-02-11T12:36:10.740Z,8.34
2019-02-11T12:38:41.778Z,8.15
2019-02-11T12:41:10.942Z,8.02
2019-02-11T12:43:39.999Z,7.84
2019-02-11T12:46:09.698Z,7.67
2019-02-11T12:48:38.857Z,7.63
2019-02-11T12:51:08.037Z,7.64
2019-02-11T12:53:37.090Z,7.86
2019-02-11T12:56:06.315Z,8.06
2019-02-11T12:58:35.480Z,8.29
2019-02-11T13:01:04.667Z,8.28
2019-02-11T13:03:34.047Z,8.24
2019-02-11T13:06:03.234Z,8.09
2019-02-11T13:08:32.331Z,8.12
2019-02-11T13:11:01.840Z,8.14
2019-02-11T13:13:31.036Z,8.16
2019-02-11T13:16:02.838Z,7.99
2019-02-11T13:18:31.552Z,8.08
2019-02-11T13:21:01.260Z,7.89
2019-02-11T13:23:30.419Z,7.88
2019-02-11T13:26:01.803Z,7.92
2019-02-11T13:28:31.077Z,7.89
2019-02-11T13:31:00.499Z,7.77
2019-02-11T13:33:29.701Z,7.71
2019-02-11T13:35:58.802Z,7.73
2019-02-11T13:38:27.952Z,7.75
2019-02-11T13:40:57.487Z,7.74
2019-02-11T13:43:26.687Z,7.62
2019-02-11T13:45:55.776Z,7.61
2019-02-11T13:48:24.953Z,7.56
2019-02-11T13:50:54.262Z,7.51
2019-02-11T13:53:23.389Z,7.50
2019-02-11T13:55:53.403Z,7.50
2019-02-11T13:58:22.512Z,7.54
2019-02-11T14:00:51.663Z,7.51
2019-02-11T14:03:21.243Z,7.46
2019-02-11T14:05:50.334Z,7.46
2019-02-11T14:08:19.548Z,7.56
2019-02-11T14:10:49.070Z,7.59
2019-02-11T14:13:18.719Z,7.57
2019-02-11T14:15:48.076Z,7.57
2019-02-11T14:18:17.522Z,7.61
2019-02-11T14:20:49.917Z,7.57
2019-02-11T14:23:18.062Z,7.65
2019-02-11T14:25:47.844Z,7.70
2019-02-11T14:28:17.394Z,7.76
2019-02-11T14:30:47.253Z,7.67
2019-02-11T14:33:16.986Z,7.71
2019-02-11T14:35:47.137Z,7.69
2019-02-11T14:38:16.748Z,7.69
2019-02-11T14:40:46.275Z,7.67
2019-02-11T14:43:15.475Z,7.67
2019-02-11T14:45:44.733Z,7.65
2019-02-11T14:48:26.679Z,7.67
2019-02-11T14:50:46.242Z,7.67
2019-02-11T14:53:15.382Z,7.60
2019-02-11T14:55:44.739Z,7.61
2019-02-11T14:58:14.532Z,7.61
2019-02-11T15:00:43.818Z,7.65
2019-02-11T15:03:13.084Z,7.67
2019-02-11T15:05:42.716Z,7.66
2019-02-11T15:08:11.925Z,7.56
2019-02-11T15:10:43.055Z,7.59
2019-02-11T15:13:12.295Z,7.57
2019-02-11T15:15:41.426Z,7.67
2019-02-11T15:18:10.656Z,7.56
2019-02-11T15:20:39.923Z,7.56
2019-02-11T15:23:09.051Z,7.49
2019-02-11T15:25:38.260Z,7.51
2019-02-11T15:28:07.368Z,7.51
2019-02-11T15:30:36.460Z,7.43
2019-02-11T15:33:05.853Z,7.28
2019-02-11T15:35:34.985Z,7.14
2019-02-11T15:38:04.218Z,6.82
2019-02-11T15:40:33.523Z,6.56
2019-02-11T15:43:03.052Z,6.35
2019-02-11T15:45:32.742Z,6.29
2019-02-11T15:48:01.933Z,6.38
2019-02-11T15:50:31.200Z,6.32
2019-02-11T15:53:00.408Z,6.33
2019-02-11T15:55:31.689Z,6.27
2019-02-11T15:58:01.002Z,6.38
2019-02-11T16:00:30.285Z,6.42
2019-02-11T16:02:59.477Z,6.42
2019-02-11T16:05:28.699Z,6.53
2019-02-11T16:07:57.804Z,6.60
2019-02-11T16:10:27.556Z,6.57
2019-02-11T16:12:57.249Z,6.54
2019-02-11T16:15:26.399Z,6.60
2019-02-11T16:17:55.497Z,6.61
2019-02-11T16:20:24.842Z,6.61
2019-02-11T16:22:53.910Z,6.62
2019-02-11T16:25:23.308Z,6.63
2019-02-11T16:27:52.512Z,6.68
2019-02-11T16:30:21.807Z,6.65
2019-02-11T16:32:50.982Z,6.73
2019-02-11T16:35:20.155Z,6.66
2019-02-11T16:37:49.406Z,6.72
2019-02-11T16:40:20.983Z,6.63
2019-02-11T16:42:50.571Z,6.54
2019-02-11T16:45:20.137Z,6.47
2019-02-11T16:47:49.335Z,6.43
2019-02-11T16:50:18.595Z,6.40
2019-02-11T16:52:47.737Z,6.44
2019-02-11T16:55:16.838Z,6.45
2019-02-11T16:57:46.322Z,6.48
2019-02-11T17:00:17.097Z,6.44
2019-02-11T17:02:46.999Z,6.48
2019-02-11T17:05:16.046Z,6.53
2019-02-11T17:07:45.327Z,6.50
2019-02-11T17:10:14.863Z,6.43
2019-02-11T17:12:44.244Z,6.39
2019-02-11T17:15:15.311Z,6.35
2019-02-11T17:17:44.608Z,6.42
2019-02-11T17:20:15.369Z,6.45
2019-02-11T17:22:44.611Z,6.46
2019-02-11T17:25:14.383Z,6.49
2019-02-11T17:27:43.533Z,6.49
2019-02-11T17:30:15.924Z,6.74
2019-02-11T17:32:45.085Z,7.21
2019-02-11T17:35:14.320Z,7.32
2019-02-11T17:37:43.442Z,7.52
2019-02-11T17:40:14.462Z,7.42
2019-02-11T17:42:45.051Z,7.26
2019-02-11T17:45:17.258Z,7.26
2019-02-11T17:47:49.184Z,7.08
2019-02-11T17:50:18.807Z,6.91
2019-02-11T17:52:50.379Z,6.86
2019-02-11T17:55:22.974Z,6.78
2019-02-11T17:57:53.086Z,6.73
2019-02-11T18:00:32.427Z,6.68
2019-02-11T18:03:02.546Z,6.57
2019-02-11T18:05:32.343Z,6.60
2019-02-11T18:08:03.631Z,6.64
2019-02-11T18:10:32.828Z,6.60
2019-02-11T18:13:04.509Z,6.60
2019-02-11T18:15:34.011Z,6.58
2019-02-11T18:18:03.448Z,6.58
2019-02-11T18:20:33.567Z,6.62
2019-02-11T18:23:06.367Z,6.58
2019-02-11T18:25:35.886Z,6.53
2019-02-11T18:28:05.179Z,6.51
2019-02-11T18:30:34.494Z,6.52
2019-02-11T18:33:03.889Z,6.42
2019-02-11T18:35:33.648Z,6.44
2019-02-11T18:38:02.896Z,6.37
2019-02-11T18:40:32.215Z,6.34
2019-02-11T18:43:01.373Z,6.32
2019-02-11T18:45:30.523Z,6.35
2019-02-11T18:47:59.655Z,6.33
2019-02-11T18:50:28.917Z,6.35
2019-02-11T18:52:59.973Z,6.27
2019-02-11T18:55:29.470Z,6.19
2019-02-11T18:57:58.800Z,6.23
2019-02-11T19:00:27.992Z,6.18
2019-02-11T19:02:58.657Z,6.19
2019-02-11T19:05:28.127Z,6.26
2019-02-11T19:07:57.521Z,6.26
2019-02-11T19:10:26.831Z,6.24
2019-02-11T19:12:56.235Z,6.22
2019-02-11T19:15:25.948Z,6.21
2019-02-11T19:17:55.172Z,6.16
2019-02-11T19:20:24.558Z,6.21
2019-02-11T19:22:54.307Z,6.24
2019-02-11T19:25:23.656Z,6.21
2019-02-11T19:27:53.331Z,6.23
2019-02-11T19:30:23.263Z,6.19
2019-02-11T19:32:54.405Z,6.09
2019-02-11T19:35:23.594Z,6.10
2019-02-11T19:37:59.734Z,6.22
2019-02-11T19:40:28.905Z,6.21
2019-02-11T19:42:58.524Z,6.20
2019-02-11T19:45:28.083Z,6.13
2019-02-11T19:47:57.555Z,6.11
2019-02-11T19:50:26.980Z,6.31
2019-02-11T19:52:56.133Z,6.27
2019-02-11T19:55:25.402Z,6.16
2019-02-11T19:57:54.567Z,6.10
2019-02-11T20:00:23.725Z,6.07
2019-02-11T20:02:52.874Z,5.99
2019-02-11T20:05:22.344Z,5.95
2019-02-11T20:07:52.117Z,5.70
2019-02-11T20:10:21.593Z,5.52
2019-02-11T20:12:50.763Z,5.37
2019-02-11T20:15:21.672Z,5.22
2019-02-11T20:17:51.103Z,5.02
2019-02-11T20:20:21.993Z,5.02
2019-02-11T20:22:51.509Z,4.80
2019-02-11T20:25:21.047Z,4.80
2019-02-11T20:27:50.401Z,4.79
2019-02-11T20:30:22.122Z,4.75
2019-02-11T20:32:51.498Z,4.75
2019-02-11T20:35:20.844Z,4.78
2019-02-11T20:37:50.160Z,4.75
2019-02-11T20:40:20.797Z,4.74
2019-02-11T20:42:50.238Z,4.74
2019-02-11T20:45:24.376Z,4.77
2019-02-11T20:47:53.537Z,4.70
2019-02-11T20:50:22.767Z,4.65
2019-02-11T20:52:51.937Z,4.64
2019-02-11T20:55:21.208Z,4.67
2019-02-11T20:57:51.271Z,4.78
2019-02-11T21:00:22.326Z,4.94
2019-02-11T21:02:51.626Z,4.77
2019-02-11T21:05:20.872Z,4.71
2019-02-11T21:07:53.120Z,4.63
2019-02-11T21:10:22.697Z,4.56
2019-02-11T21:12:51.879Z,4.53
2019-02-11T21:15:21.123Z,4.57
2019-02-11T21:17:50.228Z,4.51
2019-02-11T21:20:31.150Z,4.43
2019-02-11T21:23:00.451Z,4.38
2019-02-11T21:25:29.560Z,4.35
2019-02-11T21:27:58.724Z,4.29
2019-02-11T21:30:28.064Z,4.27
2019-02-11T21:32:57.246Z,4.27
2019-02-11T21:35:26.790Z,4.26
2019-02-11T21:37:57.647Z,4.19
2019-02-11T21:40:26.776Z,4.14
2019-02-11T21:42:56.114Z,4.08
2019-02-11T21:45:25.791Z,4.07
2019-02-11T21:47:55.283Z,4.08
2019-02-11T21:50:27.068Z,4.08
2019-02-11T21:52:56.611Z,4.00
2019-02-11T21:55:26.634Z,4.00
2019-02-11T21:57:56.018Z,3.94
2019-02-11T22:00:25.164Z,3.87
2019-02-11T22:02:54.706Z,3.82
2019-02-11T22:05:23.796Z,3.79
2019-02-11T22:07:53.168Z,3.74
2019-02-11T22:10:22.534Z,3.59
2019-02-11T22:12:51.641Z,3.58
2019-02-11T22:15:20.967Z,3.58
2019-02-11T22:17:50.620Z,3.65
2019-02-11T22:20:20.039Z,3.63
2019-02-11T22:22:49.227Z,3.65
2019-02-11T22:25:18.293Z,3.66
2019-02-11T22:27:47.549Z,3.66
2019-02-11T22:30:19.697Z,3.72
2019-02-11T22:32:48.947Z,3.76
2019-02-11T22:35:18.345Z,3.77
2019-02-11T22:37:48.243Z,3.75
2019-02-11T22:40:17.554Z,3.92
2019-02-11T22:42:46.820Z,3.92
2019-02-11T22:45:17.971Z,3.90
2019-02-11T22:47:47.509Z,3.88
2019-02-11T22:50:16.669Z,3.79
2019-02-11T22:52:45.945Z,3.78
2019-02-11T22:55:14.998Z,3.75
2019-02-11T22:57:44.089Z,3.69
2019-02-11T23:01:03.936Z,3.65
2019-02-11T23:03:35.199Z,3.65
2019-02-11T23:06:05.021Z,3.72
2019-02-11T23:08:34.187Z,3.70
2019-02-11T23:11:03.410Z,3.70
2019-02-11T23:13:32.565Z,3.76
2019-02-11T23:16:01.692Z,3.78
2019-02-11T23:18:30.805Z,3.78
2019-02-11T23:20:59.938Z,3.83
2019-02-11T23:23:29.153Z,3.79
2019-02-11T23:25:58.278Z,3.78
2019-02-11T23:28:27.580Z,3.78
2019-02-11T23:30:56.700Z,3.63
2019-02-11T23:33:25.998Z,3.63
2019-02-11T23:35:55.115Z,3.74
2019-02-11T23:38:24.376Z,3.71
2019-02-11T23:40:53.602Z,3.68
2019-02-11T23:43:22.700Z,3.68
2019-02-11T23:45:52.026Z,3.64
2019-02-11T23:48:21.300Z,3.64
2019-02-11T23:50:50.459Z,3.71
2019-02-11T23:53:19.748Z,3.71
2019-02-11T23:55:49.200Z,3.65
2019-02-11T23:58:18.293Z,3.65
